sensor_id;sensor_type;location;lat;lon;timestamp;temperature;humidity
69731;SHT31;56996;48.138;11.538;2023-04-03T00:00:31;3.83;76.10
69731;SHT31;56996;48.138;11.538;2023-04-03T00:02:57;3.80;76.32
69731;SHT31;56996;48.138;11.538;2023-04-03T00:05:23;3.80;76.63
69731;SHT31;56996;48.138;11.538;2023-04-03T00:07:50;3.80;76.82
69731;SHT31;56996;48.138;11.538;2023-04-03T00:10:16;3.80;76.72
69731;SHT31;56996;48.138;11.538;2023-04-03T00:12:42;3.78;76.44
69731;SHT31;56996;48.138;11.538;2023-04-03T00:15:08;3.76;76.47
69731;SHT31;56996;48.138;11.538;2023-04-03T00:17:34;3.73;76.53
69731;SHT31;56996;48.138;11.538;2023-04-03T00:20:01;3.77;76.19
69731;SHT31;56996;48.138;11.538;2023-04-03T00:22:29;3.81;76.10
69731;SHT31;56996;48.138;11.538;2023-04-03T00:24:55;3.79;76.19
69731;SHT31;56996;48.138;11.538;2023-04-03T00:27:21;3.75;76.41
69731;SHT31;56996;48.138;11.538;2023-04-03T00:29:47;3.76;76.11
69731;SHT31;56996;48.138;11.538;2023-04-03T00:32:13;3.75;76.02
69731;SHT31;56996;48.138;11.538;2023-04-03T00:34:39;3.83;75.98
69731;SHT31;56996;48.138;11.538;2023-04-03T00:37:05;3.87;75.69
69731;SHT31;56996;48.138;11.538;2023-04-03T00:39:32;3.89;75.73
69731;SHT31;56996;48.138;11.538;2023-04-03T00:41:58;3.87;75.56
69731;SHT31;56996;48.138;11.538;2023-04-03T00:46:53;3.82;75.93
69731;SHT31;56996;48.138;11.538;2023-04-03T00:49:20;3.84;75.80
69731;SHT31;56996;48.138;11.538;2023-04-03T00:51:46;3.84;75.96
69731;SHT31;56996;48.138;11.538;2023-04-03T00:54:12;3.84;75.96
69731;SHT31;56996;48.138;11.538;2023-04-03T00:56:40;3.85;76.06
69731;SHT31;56996;48.138;11.538;2023-04-03T00:59:08;3.82;75.91
69731;SHT31;56996;48.138;11.538;2023-04-03T01:01:40;3.76;76.16
69731;SHT31;56996;48.138;11.538;2023-04-03T01:04:26;3.72;76.55
69731;SHT31;56996;48.138;11.538;2023-04-03T01:06:53;3.70;76.59
69731;SHT31;56996;48.138;11.538;2023-04-03T01:09:23;3.68;76.29
69731;SHT31;56996;48.138;11.538;2023-04-03T01:11:49;3.64;76.28
69731;SHT31;56996;48.138;11.538;2023-04-03T01:14:15;3.66;76.83
69731;SHT31;56996;48.138;11.538;2023-04-03T01:16:41;3.64;76.56
69731;SHT31;56996;48.138;11.538;2023-04-03T01:19:08;3.63;76.85
69731;SHT31;56996;48.138;11.538;2023-04-03T01:27:00;3.64;76.76
69731;SHT31;56996;48.138;11.538;2023-04-03T01:29:29;3.63;76.79
69731;SHT31;56996;48.138;11.538;2023-04-03T01:31:56;3.62;76.71
69731;SHT31;56996;48.138;11.538;2023-04-03T01:34:24;3.59;76.81
69731;SHT31;56996;48.138;11.538;2023-04-03T01:36:51;3.57;76.73
69731;SHT31;56996;48.138;11.538;2023-04-03T01:39:18;3.58;76.76
69731;SHT31;56996;48.138;11.538;2023-04-03T01:41:45;3.61;76.91
69731;SHT31;56996;48.138;11.538;2023-04-03T01:44:17;3.61;76.79
69731;SHT31;56996;48.138;11.538;2023-04-03T01:46:43;3.58;77.27
69731;SHT31;56996;48.138;11.538;2023-04-03T01:49:10;3.58;77.21
69731;SHT31;56996;48.138;11.538;2023-04-03T01:51:36;3.58;76.86
69731;SHT31;56996;48.138;11.538;2023-04-03T01:54:02;3.59;76.35
69731;SHT31;56996;48.138;11.538;2023-04-03T01:56:28;3.63;76.27
69731;SHT31;56996;48.138;11.538;2023-04-03T01:58:54;3.65;76.42
69731;SHT31;56996;48.138;11.538;2023-04-03T02:01:21;3.65;76.41
69731;SHT31;56996;48.138;11.538;2023-04-03T02:03:47;3.62;76.46
69731;SHT31;56996;48.138;11.538;2023-04-03T02:06:13;3.58;76.66
69731;SHT31;56996;48.138;11.538;2023-04-03T02:08:40;3.59;76.46
69731;SHT31;56996;48.138;11.538;2023-04-03T02:11:07;3.58;76.58
69731;SHT31;56996;48.138;11.538;2023-04-03T02:13:33;3.54;76.73
69731;SHT31;56996;48.138;11.538;2023-04-03T02:15:59;3.56;76.57
69731;SHT31;56996;48.138;11.538;2023-04-03T02:18:32;3.55;76.52
69731;SHT31;56996;48.138;11.538;2023-04-03T02:20:58;3.53;76.50
69731;SHT31;56996;48.138;11.538;2023-04-03T02:23:25;3.57;76.61
69731;SHT31;56996;48.138;11.538;2023-04-03T02:25:51;3.55;76.39
69731;SHT31;56996;48.138;11.538;2023-04-03T02:28:17;3.55;76.30
69731;SHT31;56996;48.138;11.538;2023-04-03T02:30:43;3.57;76.16
69731;SHT31;56996;48.138;11.538;2023-04-03T02:33:09;3.59;75.87
69731;SHT31;56996;48.138;11.538;2023-04-03T02:35:38;3.61;75.44
69731;SHT31;56996;48.138;11.538;2023-04-03T02:38:05;3.60;75.47
69731;SHT31;56996;48.138;11.538;2023-04-03T02:40:32;3.59;75.20
69731;SHT31;56996;48.138;11.538;2023-04-03T02:42:58;3.59;75.12
69731;SHT31;56996;48.138;11.538;2023-04-03T02:45:24;3.62;75.03
69731;SHT31;56996;48.138;11.538;2023-04-03T02:47:51;3.62;74.57
69731;SHT31;56996;48.138;11.538;2023-04-03T02:50:17;3.63;74.60
69731;SHT31;56996;48.138;11.538;2023-04-03T02:52:43;3.62;74.77
69731;SHT31;56996;48.138;11.538;2023-04-03T02:55:09;3.65;74.89
69731;SHT31;56996;48.138;11.538;2023-04-03T02:57:41;3.65;75.17
69731;SHT31;56996;48.138;11.538;2023-04-03T03:00:08;3.66;75.25
69731;SHT31;56996;48.138;11.538;2023-04-03T03:02:35;3.66;74.87
69731;SHT31;56996;48.138;11.538;2023-04-03T03:05:01;3.66;74.47
69731;SHT31;56996;48.138;11.538;2023-04-03T03:07:27;3.67;74.91
69731;SHT31;56996;48.138;11.538;2023-04-03T03:09:53;3.72;74.76
69731;SHT31;56996;48.138;11.538;2023-04-03T03:12:19;3.73;73.93
69731;SHT31;56996;48.138;11.538;2023-04-03T03:14:48;3.72;73.96
69731;SHT31;56996;48.138;11.538;2023-04-03T03:17:15;3.72;74.30
69731;SHT31;56996;48.138;11.538;2023-04-03T03:19:42;3.75;73.56
69731;SHT31;56996;48.138;11.538;2023-04-03T03:22:09;3.73;73.69
69731;SHT31;56996;48.138;11.538;2023-04-03T03:24:36;3.75;73.60
69731;SHT31;56996;48.138;11.538;2023-04-03T03:27:02;3.73;73.54
69731;SHT31;56996;48.138;11.538;2023-04-03T03:29:28;3.77;73.52
69731;SHT31;56996;48.138;11.538;2023-04-03T03:31:54;3.77;73.25
69731;SHT31;56996;48.138;11.538;2023-04-03T03:34:20;3.76;72.94
69731;SHT31;56996;48.138;11.538;2023-04-03T03:36:47;3.77;72.77
69731;SHT31;56996;48.138;11.538;2023-04-03T03:39:13;3.79;72.57
69731;SHT31;56996;48.138;11.538;2023-04-03T03:41:39;3.80;72.47
69731;SHT31;56996;48.138;11.538;2023-04-03T03:44:05;3.81;71.88
69731;SHT31;56996;48.138;11.538;2023-04-03T03:46:31;3.82;71.94
69731;SHT31;56996;48.138;11.538;2023-04-03T03:48:57;3.85;71.66
69731;SHT31;56996;48.138;11.538;2023-04-03T03:51:23;3.87;71.59
69731;SHT31;56996;48.138;11.538;2023-04-03T03:53:50;3.85;71.30
69731;SHT31;56996;48.138;11.538;2023-04-03T03:56:17;3.85;71.20
69731;SHT31;56996;48.138;11.538;2023-04-03T03:58:43;3.86;71.37
69731;SHT31;56996;48.138;11.538;2023-04-03T04:01:10;3.85;70.98
69731;SHT31;56996;48.138;11.538;2023-04-03T04:03:43;3.88;71.21
69731;SHT31;56996;48.138;11.538;2023-04-03T04:06:11;3.90;71.12
69731;SHT31;56996;48.138;11.538;2023-04-03T04:08:37;3.92;70.95
69731;SHT31;56996;48.138;11.538;2023-04-03T04:11:04;3.90;70.66
69731;SHT31;56996;48.138;11.538;2023-04-03T04:13:31;3.88;70.70
69731;SHT31;56996;48.138;11.538;2023-04-03T04:15:57;3.87;71.02
69731;SHT31;56996;48.138;11.538;2023-04-03T04:18:23;3.88;70.81
69731;SHT31;56996;48.138;11.538;2023-04-03T04:20:49;3.89;70.86
69731;SHT31;56996;48.138;11.538;2023-04-03T04:23:16;3.89;70.67
69731;SHT31;56996;48.138;11.538;2023-04-03T04:25:44;3.86;70.55
69731;SHT31;56996;48.138;11.538;2023-04-03T04:28:13;3.84;70.57
69731;SHT31;56996;48.138;11.538;2023-04-03T04:30:40;3.80;70.65
69731;SHT31;56996;48.138;11.538;2023-04-03T04:33:06;3.77;70.89
69731;SHT31;56996;48.138;11.538;2023-04-03T04:35:32;3.76;70.77
69731;SHT31;56996;48.138;11.538;2023-04-03T04:38:01;3.74;70.72
69731;SHT31;56996;48.138;11.538;2023-04-03T04:40:28;3.72;70.82
69731;SHT31;56996;48.138;11.538;2023-04-03T04:42:54;3.77;70.75
69731;SHT31;56996;48.138;11.538;2023-04-03T04:45:20;3.77;70.40
69731;SHT31;56996;48.138;11.538;2023-04-03T04:47:46;3.78;70.56
69731;SHT31;56996;48.138;11.538;2023-04-03T04:50:13;3.79;70.46
69731;SHT31;56996;48.138;11.538;2023-04-03T04:52:40;3.79;70.53
69731;SHT31;56996;48.138;11.538;2023-04-03T04:55:07;3.82;70.51
69731;SHT31;56996;48.138;11.538;2023-04-03T04:57:33;3.82;70.43
69731;SHT31;56996;48.138;11.538;2023-04-03T05:00:00;3.81;70.54
69731;SHT31;56996;48.138;11.538;2023-04-03T05:02:28;3.80;70.48
69731;SHT31;56996;48.138;11.538;2023-04-03T05:04:54;3.84;70.54
69731;SHT31;56996;48.138;11.538;2023-04-03T05:07:23;3.86;70.40
69731;SHT31;56996;48.138;11.538;2023-04-03T05:09:49;3.87;70.52
69731;SHT31;56996;48.138;11.538;2023-04-03T05:12:15;3.89;70.55
69731;SHT31;56996;48.138;11.538;2023-04-03T05:14:47;3.88;70.61
69731;SHT31;56996;48.138;11.538;2023-04-03T05:17:13;3.87;70.30
69731;SHT31;56996;48.138;11.538;2023-04-03T05:19:42;3.88;70.53
69731;SHT31;56996;48.138;11.538;2023-04-03T05:22:08;3.89;70.50
69731;SHT31;56996;48.138;11.538;2023-04-03T05:24:34;3.87;70.24
69731;SHT31;56996;48.138;11.538;2023-04-03T05:27:00;3.85;70.39
69731;SHT31;56996;48.138;11.538;2023-04-03T05:29:27;3.83;70.46
69731;SHT31;56996;48.138;11.538;2023-04-03T05:31:54;3.83;70.16
69731;SHT31;56996;48.138;11.538;2023-04-03T05:34:20;3.81;69.64
69731;SHT31;56996;48.138;11.538;2023-04-03T05:36:47;3.81;69.85
69731;SHT31;56996;48.138;11.538;2023-04-03T05:39:13;3.82;69.89
69731;SHT31;56996;48.138;11.538;2023-04-03T05:41:40;3.83;69.83
69731;SHT31;56996;48.138;11.538;2023-04-03T05:44:06;3.83;69.61
69731;SHT31;56996;48.138;11.538;2023-04-03T05:46:32;3.81;70.00
69731;SHT31;56996;48.138;11.538;2023-04-03T05:49:02;3.84;69.92
69731;SHT31;56996;48.138;11.538;2023-04-03T05:51:30;3.84;70.10
69731;SHT31;56996;48.138;11.538;2023-04-03T05:54:29;3.85;70.41
69731;SHT31;56996;48.138;11.538;2023-04-03T05:57:11;3.89;70.31
69731;SHT31;56996;48.138;11.538;2023-04-03T05:59:37;3.93;70.16
69731;SHT31;56996;48.138;11.538;2023-04-03T06:02:03;3.97;70.04
69731;SHT31;56996;48.138;11.538;2023-04-03T06:04:29;3.97;69.89
69731;SHT31;56996;48.138;11.538;2023-04-03T06:06:56;4.00;70.37
69731;SHT31;56996;48.138;11.538;2023-04-03T06:09:25;3.98;70.08
69731;SHT31;56996;48.138;11.538;2023-04-03T06:11:54;3.99;70.00
69731;SHT31;56996;48.138;11.538;2023-04-03T06:14:21;3.99;69.73
69731;SHT31;56996;48.138;11.538;2023-04-03T06:16:47;4.05;69.61
69731;SHT31;56996;48.138;11.538;2023-04-03T06:19:13;4.09;69.32
69731;SHT31;56996;48.138;11.538;2023-04-03T06:21:44;4.11;69.10
69731;SHT31;56996;48.138;11.538;2023-04-03T06:24:12;4.12;69.15
69731;SHT31;56996;48.138;11.538;2023-04-03T06:26:41;4.16;69.13
69731;SHT31;56996;48.138;11.538;2023-04-03T06:29:08;4.21;68.76
69731;SHT31;56996;48.138;11.538;2023-04-03T06:31:34;4.28;68.76
69731;SHT31;56996;48.138;11.538;2023-04-03T06:34:02;4.37;68.60
69731;SHT31;56996;48.138;11.538;2023-04-03T06:36:29;4.45;67.76
69731;SHT31;56996;48.138;11.538;2023-04-03T06:38:55;4.42;67.12
69731;SHT31;56996;48.138;11.538;2023-04-03T06:41:21;4.40;67.21
69731;SHT31;56996;48.138;11.538;2023-04-03T06:43:47;4.46;67.68
69731;SHT31;56996;48.138;11.538;2023-04-03T06:46:14;4.63;67.32
69731;SHT31;56996;48.138;11.538;2023-04-03T06:48:43;4.73;66.76
69731;SHT31;56996;48.138;11.538;2023-04-03T06:53:49;4.78;66.16
69731;SHT31;56996;48.138;11.538;2023-04-03T06:56:17;4.76;66.05
69731;SHT31;56996;48.138;11.538;2023-04-03T06:58:43;4.72;65.67
69731;SHT31;56996;48.138;11.538;2023-04-03T07:01:11;4.69;65.78
69731;SHT31;56996;48.138;11.538;2023-04-03T07:03:39;4.73;66.20
69731;SHT31;56996;48.138;11.538;2023-04-03T07:06:06;4.79;65.82
69731;SHT31;56996;48.138;11.538;2023-04-03T07:08:36;4.88;65.98
69731;SHT31;56996;48.138;11.538;2023-04-03T07:11:03;5.03;65.62
69731;SHT31;56996;48.138;11.538;2023-04-03T07:13:30;5.05;65.10
69731;SHT31;56996;48.138;11.538;2023-04-03T07:15:55;5.01;64.68
69731;SHT31;56996;48.138;11.538;2023-04-03T07:18:22;5.00;64.66
69731;SHT31;56996;48.138;11.538;2023-04-03T07:20:48;5.02;64.83
69731;SHT31;56996;48.138;11.538;2023-04-03T07:23:15;5.15;64.90
69731;SHT31;56996;48.138;11.538;2023-04-03T07:25:45;5.34;64.48
69731;SHT31;56996;48.138;11.538;2023-04-03T07:28:12;5.39;63.86
69731;SHT31;56996;48.138;11.538;2023-04-03T07:30:43;5.37;63.86
69731;SHT31;56996;48.138;11.538;2023-04-03T07:33:12;5.39;63.84
69731;SHT31;56996;48.138;11.538;2023-04-03T07:35:41;5.37;63.71
69731;SHT31;56996;48.138;11.538;2023-04-03T07:38:08;5.37;63.56
69731;SHT31;56996;48.138;11.538;2023-04-03T07:40:35;5.38;63.72
69731;SHT31;56996;48.138;11.538;2023-04-03T07:43:03;5.45;63.62
69731;SHT31;56996;48.138;11.538;2023-04-03T07:45:31;5.53;63.26
69731;SHT31;56996;48.138;11.538;2023-04-03T07:48:00;5.39;63.14
69731;SHT31;56996;48.138;11.538;2023-04-03T07:50:27;5.35;63.51
69731;SHT31;56996;48.138;11.538;2023-04-03T07:52:54;5.35;63.24
69731;SHT31;56996;48.138;11.538;2023-04-03T07:55:20;5.29;63.17
69731;SHT31;56996;48.138;11.538;2023-04-03T07:57:46;5.21;63.36
69731;SHT31;56996;48.138;11.538;2023-04-03T08:00:12;5.22;63.38
69731;SHT31;56996;48.138;11.538;2023-04-03T08:02:40;5.21;63.33
69731;SHT31;56996;48.138;11.538;2023-04-03T08:05:06;5.14;63.44
69731;SHT31;56996;48.138;11.538;2023-04-03T08:07:32;5.10;63.67
69731;SHT31;56996;48.138;11.538;2023-04-03T08:09:58;5.11;63.90
69731;SHT31;56996;48.138;11.538;2023-04-03T08:12:24;5.10;64.06
69731;SHT31;56996;48.138;11.538;2023-04-03T08:14:50;5.17;64.44
69731;SHT31;56996;48.138;11.538;2023-04-03T08:17:16;5.30;63.76
69731;SHT31;56996;48.138;11.538;2023-04-03T08:19:42;5.29;63.35
69731;SHT31;56996;48.138;11.538;2023-04-03T08:22:08;5.18;62.76
69731;SHT31;56996;48.138;11.538;2023-04-03T08:24:34;5.12;63.67
69731;SHT31;56996;48.138;11.538;2023-04-03T08:27:02;5.12;63.64
69731;SHT31;56996;48.138;11.538;2023-04-03T08:29:28;5.09;63.39
69731;SHT31;56996;48.138;11.538;2023-04-03T08:31:54;5.12;63.75
69731;SHT31;56996;48.138;11.538;2023-04-03T08:34:20;5.19;63.34
69731;SHT31;56996;48.138;11.538;2023-04-03T08:36:46;5.22;63.41
69731;SHT31;56996;48.138;11.538;2023-04-03T08:39:12;5.20;62.90
69731;SHT31;56996;48.138;11.538;2023-04-03T08:41:39;5.21;63.13
69731;SHT31;56996;48.138;11.538;2023-04-03T08:47:38;5.40;63.50
69731;SHT31;56996;48.138;11.538;2023-04-03T08:50:20;5.62;63.35
69731;SHT31;56996;48.138;11.538;2023-04-03T08:52:57;5.73;62.26
69731;SHT31;56996;48.138;11.538;2023-04-03T08:55:31;5.64;61.20
69731;SHT31;56996;48.138;11.538;2023-04-03T08:58:04;5.55;61.86
69731;SHT31;56996;48.138;11.538;2023-04-03T09:00:46;5.55;62.00
69731;SHT31;56996;48.138;11.538;2023-04-03T09:03:40;5.62;61.96
69731;SHT31;56996;48.138;11.538;2023-04-03T09:06:14;5.65;61.74
69731;SHT31;56996;48.138;11.538;2023-04-03T09:08:51;5.63;61.28
69731;SHT31;56996;48.138;11.538;2023-04-03T09:14:33;5.88;61.88
69731;SHT31;56996;48.138;11.538;2023-04-03T09:17:15;6.03;61.83
69731;SHT31;56996;48.138;11.538;2023-04-03T09:20:02;6.12;60.87
69731;SHT31;56996;48.138;11.538;2023-04-03T09:22:53;6.13;60.51
69731;SHT31;56996;48.138;11.538;2023-04-03T09:25:31;6.21;60.55
69731;SHT31;56996;48.138;11.538;2023-04-03T09:28:01;6.18;60.39
69731;SHT31;56996;48.138;11.538;2023-04-03T09:30:35;6.16;59.91
69731;SHT31;56996;48.138;11.538;2023-04-03T09:33:04;6.21;59.85
69731;SHT31;56996;48.138;11.538;2023-04-03T09:35:35;6.29;59.53
69731;SHT31;56996;48.138;11.538;2023-04-03T09:40:43;6.48;58.58
69731;SHT31;56996;48.138;11.538;2023-04-03T09:43:37;6.45;58.13
69731;SHT31;56996;48.138;11.538;2023-04-03T09:46:18;6.37;57.99
69731;SHT31;56996;48.138;11.538;2023-04-03T09:49:01;6.31;58.17
69731;SHT31;56996;48.138;11.538;2023-04-03T09:51:35;6.35;59.11
69731;SHT31;56996;48.138;11.538;2023-04-03T09:54:48;6.35;59.19
69731;SHT31;56996;48.138;11.538;2023-04-03T09:57:01;6.31;59.61
69731;SHT31;56996;48.138;11.538;2023-04-03T09:59:33;6.23;60.23
69731;SHT31;56996;48.138;11.538;2023-04-03T10:02:00;6.27;60.80
69731;SHT31;56996;48.138;11.538;2023-04-03T10:04:38;6.48;61.07
69731;SHT31;56996;48.138;11.538;2023-04-03T10:07:26;6.67;59.70
69731;SHT31;56996;48.138;11.538;2023-04-03T10:10:01;6.63;59.08
69731;SHT31;56996;48.138;11.538;2023-04-03T10:13:05;6.56;58.50
69731;SHT31;56996;48.138;11.538;2023-04-03T10:27:06;6.20;59.27
69731;SHT31;56996;48.138;11.538;2023-04-03T10:29:58;6.05;59.96
69731;SHT31;56996;48.138;11.538;2023-04-03T10:33:11;6.02;60.21
69731;SHT31;56996;48.138;11.538;2023-04-03T10:38:57;6.10;60.25
69731;SHT31;56996;48.138;11.538;2023-04-03T10:44:42;6.14;60.67
69731;SHT31;56996;48.138;11.538;2023-04-03T10:47:47;6.12;60.02
69731;SHT31;56996;48.138;11.538;2023-04-03T10:55:39;5.69;59.66
69731;SHT31;56996;48.138;11.538;2023-04-03T10:58:24;5.66;60.24
69731;SHT31;56996;48.138;11.538;2023-04-03T11:01:18;5.57;61.17
69731;SHT31;56996;48.138;11.538;2023-04-03T11:03:49;5.57;62.09
69731;SHT31;56996;48.138;11.538;2023-04-03T11:06:22;5.62;62.49
69731;SHT31;56996;48.138;11.538;2023-04-03T11:11:41;5.74;63.41
69731;SHT31;56996;48.138;11.538;2023-04-03T11:17:35;5.63;63.42
69731;SHT31;56996;48.138;11.538;2023-04-03T11:20:01;5.64;62.63
69731;SHT31;56996;48.138;11.538;2023-04-03T11:22:45;5.73;62.30
69731;SHT31;56996;48.138;11.538;2023-04-03T11:25:21;5.71;61.95
69731;SHT31;56996;48.138;11.538;2023-04-03T11:27:58;5.70;61.03
69731;SHT31;56996;48.138;11.538;2023-04-03T11:36:42;6.04;57.94
69731;SHT31;56996;48.138;11.538;2023-04-03T11:39:23;6.12;58.63
69731;SHT31;56996;48.138;11.538;2023-04-03T11:45:46;6.58;56.72
69731;SHT31;56996;48.138;11.538;2023-04-03T11:48:00;6.71;56.48
69731;SHT31;56996;48.138;11.538;2023-04-03T11:50:52;6.80;56.09
69731;SHT31;56996;48.138;11.538;2023-04-03T11:56:01;6.99;55.09
69731;SHT31;56996;48.138;11.538;2023-04-03T11:58:33;7.20;54.24
69731;SHT31;56996;48.138;11.538;2023-04-03T12:03:34;7.32;51.57
69731;SHT31;56996;48.138;11.538;2023-04-03T12:08:57;7.28;50.51
69731;SHT31;56996;48.138;11.538;2023-04-03T12:11:25;7.32;50.13
69731;SHT31;56996;48.138;11.538;2023-04-03T12:16:22;7.47;49.93
69731;SHT31;56996;48.138;11.538;2023-04-03T12:26:32;7.40;47.60
69731;SHT31;56996;48.138;11.538;2023-04-03T12:29:15;7.36;47.80
69731;SHT31;56996;48.138;11.538;2023-04-03T12:46:53;7.45;47.07
69731;SHT31;56996;48.138;11.538;2023-04-03T12:51:58;7.85;46.82
69731;SHT31;56996;48.138;11.538;2023-04-03T12:54:27;7.88;45.22
69731;SHT31;56996;48.138;11.538;2023-04-03T12:59:45;7.81;45.05
69731;SHT31;56996;48.138;11.538;2023-04-03T13:02:20;7.76;44.33
69731;SHT31;56996;48.138;11.538;2023-04-03T13:05:05;7.81;43.70
69731;SHT31;56996;48.138;11.538;2023-04-03T13:07:36;7.76;43.38
69731;SHT31;56996;48.138;11.538;2023-04-03T13:12:33;7.71;44.48
69731;SHT31;56996;48.138;11.538;2023-04-03T13:15:11;7.78;45.11
69731;SHT31;56996;48.138;11.538;2023-04-03T13:17:45;8.00;43.89
69731;SHT31;56996;48.138;11.538;2023-04-03T13:20:17;8.00;43.41
69731;SHT31;56996;48.138;11.538;2023-04-03T13:23:07;8.11;44.14
69731;SHT31;56996;48.138;11.538;2023-04-03T13:25:37;8.23;43.34
69731;SHT31;56996;48.138;11.538;2023-04-03T13:28:10;8.31;43.04
69731;SHT31;56996;48.138;11.538;2023-04-03T13:30:46;8.35;42.74
69731;SHT31;56996;48.138;11.538;2023-04-03T13:33:32;8.30;42.13
69731;SHT31;56996;48.138;11.538;2023-04-03T13:36:16;8.15;41.39
69731;SHT31;56996;48.138;11.538;2023-04-03T13:38:46;7.98;40.20
69731;SHT31;56996;48.138;11.538;2023-04-03T13:41:31;7.85;41.70
69731;SHT31;56996;48.138;11.538;2023-04-03T13:46:48;7.63;42.41
69731;SHT31;56996;48.138;11.538;2023-04-03T13:49:35;7.53;43.16
69731;SHT31;56996;48.138;11.538;2023-04-03T13:55:01;7.46;43.84
69731;SHT31;56996;48.138;11.538;2023-04-03T14:02:59;7.48;44.00
69731;SHT31;56996;48.138;11.538;2023-04-03T14:05:26;7.52;42.91
69731;SHT31;56996;48.138;11.538;2023-04-03T14:07:53;7.55;42.68
69731;SHT31;56996;48.138;11.538;2023-04-03T14:10:20;7.52;42.79
69731;SHT31;56996;48.138;11.538;2023-04-03T14:12:47;7.55;43.04
69731;SHT31;56996;48.138;11.538;2023-04-03T14:15:19;7.56;42.50
69731;SHT31;56996;48.138;11.538;2023-04-03T14:17:50;7.48;42.62
69731;SHT31;56996;48.138;11.538;2023-04-03T14:20:19;7.45;42.91
69731;SHT31;56996;48.138;11.538;2023-04-03T14:22:48;7.48;43.08
69731;SHT31;56996;48.138;11.538;2023-04-03T14:25:15;7.51;42.92
69731;SHT31;56996;48.138;11.538;2023-04-03T14:27:43;7.51;42.98
69731;SHT31;56996;48.138;11.538;2023-04-03T14:30:21;7.53;43.03
69731;SHT31;56996;48.138;11.538;2023-04-03T14:32:53;7.60;42.41
69731;SHT31;56996;48.138;11.538;2023-04-03T14:35:20;7.57;41.67
69731;SHT31;56996;48.138;11.538;2023-04-03T14:37:48;7.52;41.97
69731;SHT31;56996;48.138;11.538;2023-04-03T14:40:16;7.53;41.68
69731;SHT31;56996;48.138;11.538;2023-04-03T14:42:46;7.73;42.27
69731;SHT31;56996;48.138;11.538;2023-04-03T14:45:14;8.05;40.93
69731;SHT31;56996;48.138;11.538;2023-04-03T14:47:52;8.25;40.09
69731;SHT31;56996;48.138;11.538;2023-04-03T14:50:22;8.35;40.13
69731;SHT31;56996;48.138;11.538;2023-04-03T14:52:52;8.42;40.04
69731;SHT31;56996;48.138;11.538;2023-04-03T14:55:22;8.31;39.14
69731;SHT31;56996;48.138;11.538;2023-04-03T14:57:51;8.19;39.85
69731;SHT31;56996;48.138;11.538;2023-04-03T15:00:19;8.16;39.69
69731;SHT31;56996;48.138;11.538;2023-04-03T15:02:47;8.09;39.35
69731;SHT31;56996;48.138;11.538;2023-04-03T15:05:14;8.02;39.38
69731;SHT31;56996;48.138;11.538;2023-04-03T15:07:46;7.89;39.13
69731;SHT31;56996;48.138;11.538;2023-04-03T15:12:51;7.74;39.51
69731;SHT31;56996;48.138;11.538;2023-04-03T15:15:19;7.76;39.22
69731;SHT31;56996;48.138;11.538;2023-04-03T15:17:48;7.64;38.17
69731;SHT31;56996;48.138;11.538;2023-04-03T15:20:24;7.62;38.87
69731;SHT31;56996;48.138;11.538;2023-04-03T15:22:53;7.58;37.63
69731;SHT31;56996;48.138;11.538;2023-04-03T15:25:21;7.51;37.83
69731;SHT31;56996;48.138;11.538;2023-04-03T15:27:47;7.39;37.27
69731;SHT31;56996;48.138;11.538;2023-04-03T15:30:15;7.30;36.65
69731;SHT31;56996;48.138;11.538;2023-04-03T15:32:43;7.20;36.43
69731;SHT31;56996;48.138;11.538;2023-04-03T15:35:10;7.14;36.51
69731;SHT31;56996;48.138;11.538;2023-04-03T15:37:36;7.04;37.12
69731;SHT31;56996;48.138;11.538;2023-04-03T15:40:03;6.99;36.50
69731;SHT31;56996;48.138;11.538;2023-04-03T15:42:31;6.97;36.87
69731;SHT31;56996;48.138;11.538;2023-04-03T15:44:57;6.97;37.00
69731;SHT31;56996;48.138;11.538;2023-04-03T15:47:24;7.02;37.36
69731;SHT31;56996;48.138;11.538;2023-04-03T15:49:52;7.04;36.60
69731;SHT31;56996;48.138;11.538;2023-04-03T15:52:20;7.03;36.44
69731;SHT31;56996;48.138;11.538;2023-04-03T15:54:46;7.01;37.09
69731;SHT31;56996;48.138;11.538;2023-04-03T15:57:12;7.06;36.89
69731;SHT31;56996;48.138;11.538;2023-04-03T15:59:38;7.04;36.17
69731;SHT31;56996;48.138;11.538;2023-04-03T16:02:05;7.01;36.15
69731;SHT31;56996;48.138;11.538;2023-04-03T16:04:33;7.00;36.11
69731;SHT31;56996;48.138;11.538;2023-04-03T16:07:01;7.00;36.66
69731;SHT31;56996;48.138;11.538;2023-04-03T16:09:28;6.96;36.21
69731;SHT31;56996;48.138;11.538;2023-04-03T16:11:55;6.90;36.82
69731;SHT31;56996;48.138;11.538;2023-04-03T16:14:21;6.84;37.28
69731;SHT31;56996;48.138;11.538;2023-04-03T16:16:47;6.78;37.37
69731;SHT31;56996;48.138;11.538;2023-04-03T16:19:14;6.73;37.74
69731;SHT31;56996;48.138;11.538;2023-04-03T16:21:40;6.72;38.37
69731;SHT31;56996;48.138;11.538;2023-04-03T16:24:06;6.77;38.08
69731;SHT31;56996;48.138;11.538;2023-04-03T16:26:32;6.74;38.20
69731;SHT31;56996;48.138;11.538;2023-04-03T16:28:58;6.73;38.40
69731;SHT31;56996;48.138;11.538;2023-04-03T16:31:24;6.70;38.22
69731;SHT31;56996;48.138;11.538;2023-04-03T16:33:51;6.62;37.62
69731;SHT31;56996;48.138;11.538;2023-04-03T16:36:17;6.51;37.37
69731;SHT31;56996;48.138;11.538;2023-04-03T16:38:43;6.43;37.32
69731;SHT31;56996;48.138;11.538;2023-04-03T16:41:10;6.38;38.04
69731;SHT31;56996;48.138;11.538;2023-04-03T16:43:35;6.32;37.65
69731;SHT31;56996;48.138;11.538;2023-04-03T16:46:02;6.23;37.78
69731;SHT31;56996;48.138;11.538;2023-04-03T16:48:29;6.15;38.10
69731;SHT31;56996;48.138;11.538;2023-04-03T16:50:55;6.11;38.16
69731;SHT31;56996;48.138;11.538;2023-04-03T16:53:22;6.07;38.13
69731;SHT31;56996;48.138;11.538;2023-04-03T16:55:49;6.08;38.10
69731;SHT31;56996;48.138;11.538;2023-04-03T16:58:16;6.09;37.33
69731;SHT31;56996;48.138;11.538;2023-04-03T17:00:42;6.06;37.53
69731;SHT31;56996;48.138;11.538;2023-04-03T17:03:08;6.01;37.34
69731;SHT31;56996;48.138;11.538;2023-04-03T17:05:34;5.98;38.17
69731;SHT31;56996;48.138;11.538;2023-04-03T17:08:01;5.95;38.96
69731;SHT31;56996;48.138;11.538;2023-04-03T17:10:27;5.85;39.38
69731;SHT31;56996;48.138;11.538;2023-04-03T17:12:54;5.75;39.56
69731;SHT31;56996;48.138;11.538;2023-04-03T17:15:20;5.67;39.72
69731;SHT31;56996;48.138;11.538;2023-04-03T17:17:46;5.63;40.19
69731;SHT31;56996;48.138;11.538;2023-04-03T17:20:14;5.67;40.43
69731;SHT31;56996;48.138;11.538;2023-04-03T17:22:40;5.66;40.08
69731;SHT31;56996;48.138;11.538;2023-04-03T17:25:07;5.63;40.35
69731;SHT31;56996;48.138;11.538;2023-04-03T17:27:33;5.62;40.80
69731;SHT31;56996;48.138;11.538;2023-04-03T17:29:59;5.62;40.91
69731;SHT31;56996;48.138;11.538;2023-04-03T17:32:25;5.59;41.24
69731;SHT31;56996;48.138;11.538;2023-04-03T17:34:52;5.55;41.62
69731;SHT31;56996;48.138;11.538;2023-04-03T17:37:18;5.55;41.93